sensor_id;sensor_type;location;lat;lon;timestamp;pressure;altitude;pressure_sealevel;temperature;humidity
51617;BME280;37697;52.588;13.394;2023-01-26T00:02:12;101916.95;;;-0.96;94.77
51617;BME280;37697;52.588;13.394;2023-01-26T00:07:14;101917.08;;;-0.97;94.53
51617;BME280;37697;52.588;13.394;2023-01-26T00:12:17;101914.05;;;-0.96;94.71
51617;BME280;37697;52.588;13.394;2023-01-26T00:17:20;101905.17;;;-0.97;94.71
51617;BME280;37697;52.588;13.394;2023-01-26T00:22:28;101897.01;;;-0.98;94.72
51617;BME280;37697;52.588;13.394;2023-01-26T00:27:31;101891.60;;;-0.96;94.59
51617;BME280;37697;52.588;13.394;2023-01-26T00:32:34;101881.58;;;-0.97;94.54
51617;BME280;37697;52.588;13.394;2023-01-26T00:37:40;101873.39;;;-0.96;94.64
51617;BME280;37697;52.588;13.394;2023-01-26T00:42:43;101868.65;;;-0.96;94.53
51617;BME280;37697;52.588;13.394;2023-01-26T00:47:45;101865.67;;;-0.98;94.58
51617;BME280;37697;52.588;13.394;2023-01-26T00:52:48;101866.16;;;-1.02;94.46
51617;BME280;37697;52.588;13.394;2023-01-26T00:57:51;101865.53;;;-1.02;94.53
51617;BME280;37697;52.588;13.394;2023-01-26T01:02:54;101861.94;;;-1.05;94.55
51617;BME280;37697;52.588;13.394;2023-01-26T01:07:58;101855.08;;;-1.04;94.77
51617;BME280;37697;52.588;13.394;2023-01-26T01:13:00;101857.60;;;-1.02;94.68
51617;BME280;37697;52.588;13.394;2023-01-26T01:18:03;101852.30;;;-1.02;94.72
51617;BME280;37697;52.588;13.394;2023-01-26T01:23:06;101850.30;;;-1.03;94.69
51617;BME280;37697;52.588;13.394;2023-01-26T01:28:08;101839.39;;;-1.05;94.52
51617;BME280;37697;52.588;13.394;2023-01-26T01:33:11;101835.52;;;-1.06;94.65
51617;BME280;37697;52.588;13.394;2023-01-26T01:38:13;101835.06;;;-1.05;94.81
51617;BME280;37697;52.588;13.394;2023-01-26T01:43:16;101832.36;;;-1.04;94.93
51617;BME280;37697;52.588;13.394;2023-01-26T01:53:31;101831.27;;;-1.01;94.88
51617;BME280;37697;52.588;13.394;2023-01-26T01:58:37;101825.94;;;-1.02;94.79
51617;BME280;37697;52.588;13.394;2023-01-26T02:03:43;101817.45;;;-1.00;95.08
51617;BME280;37697;52.588;13.394;2023-01-26T02:08:49;101809.89;;;-0.99;95.06
51617;BME280;37697;52.588;13.394;2023-01-26T02:13:53;101805.90;;;-0.96;95.07
51617;BME280;37697;52.588;13.394;2023-01-26T02:18:55;101797.90;;;-0.93;95.15
51617;BME280;37697;52.588;13.394;2023-01-26T02:24:08;101789.52;;;-0.93;94.96
51617;BME280;37697;52.588;13.394;2023-01-26T02:29:14;101781.91;;;-0.93;94.72
51617;BME280;37697;52.588;13.394;2023-01-26T02:34:17;101776.70;;;-0.94;94.68
51617;BME280;37697;52.588;13.394;2023-01-26T02:39:37;101768.30;;;-0.95;94.91
51617;BME280;37697;52.588;13.394;2023-01-26T02:44:43;101765.02;;;-0.93;94.88
51617;BME280;37697;52.588;13.394;2023-01-26T02:49:46;101756.64;;;-0.95;94.63
51617;BME280;37697;52.588;13.394;2023-01-26T02:54:49;101754.41;;;-1.01;94.52
51617;BME280;37697;52.588;13.394;2023-01-26T03:00:22;101747.23;;;-1.02;94.60
51617;BME280;37697;52.588;13.394;2023-01-26T03:05:26;101749.02;;;-1.05;94.72
51617;BME280;37697;52.588;13.394;2023-01-26T03:10:29;101750.73;;;-1.04;94.94
51617;BME280;37697;52.588;13.394;2023-01-26T03:15:32;101750.84;;;-1.02;94.88
51617;BME280;37697;52.588;13.394;2023-01-26T03:20:44;101751.71;;;-1.02;94.68
51617;BME280;37697;52.588;13.394;2023-01-26T03:26:09;101747.25;;;-1.03;94.83
51617;BME280;37697;52.588;13.394;2023-01-26T03:31:30;101739.23;;;-1.01;94.81
51617;BME280;37697;52.588;13.394;2023-01-26T03:36:33;101736.73;;;-1.02;94.71
51617;BME280;37697;52.588;13.394;2023-01-26T03:41:36;101734.04;;;-1.00;94.88
51617;BME280;37697;52.588;13.394;2023-01-26T03:46:58;101737.98;;;-1.00;94.71
51617;BME280;37697;52.588;13.394;2023-01-26T03:52:20;101745.23;;;-1.02;94.76
51617;BME280;37697;52.588;13.394;2023-01-26T03:57:42;101746.76;;;-1.03;94.97
51617;BME280;37697;52.588;13.394;2023-01-26T04:02:44;101745.77;;;-1.00;94.97
51617;BME280;37697;52.588;13.394;2023-01-26T04:08:06;101745.34;;;-1.03;94.74
51617;BME280;37697;52.588;13.394;2023-01-26T04:13:27;101741.59;;;-1.06;94.66
51617;BME280;37697;52.588;13.394;2023-01-26T04:18:49;101736.04;;;-1.09;94.75
51617;BME280;37697;52.588;13.394;2023-01-26T04:24:10;101723.64;;;-1.10;94.77
51617;BME280;37697;52.588;13.394;2023-01-26T04:29:18;101714.45;;;-1.09;94.97
51617;BME280;37697;52.588;13.394;2023-01-26T04:34:21;101716.15;;;-1.08;95.03
51617;BME280;37697;52.588;13.394;2023-01-26T04:39:24;101714.57;;;-1.09;95.06
51617;BME280;37697;52.588;13.394;2023-01-26T04:44:26;101710.52;;;-1.09;94.89
51617;BME280;37697;52.588;13.394;2023-01-26T04:49:29;101710.20;;;-1.11;94.85
51617;BME280;37697;52.588;13.394;2023-01-26T04:54:31;101712.45;;;-1.13;94.80
51617;BME280;37697;52.588;13.394;2023-01-26T04:59:34;101703.69;;;-1.15;94.81
51617;BME280;37697;52.588;13.394;2023-01-26T05:04:37;101698.19;;;-1.17;94.62
51617;BME280;37697;52.588;13.394;2023-01-26T05:09:39;101694.54;;;-1.17;94.89
51617;BME280;37697;52.588;13.394;2023-01-26T05:14:42;101690.46;;;-1.17;94.76
51617;BME280;37697;52.588;13.394;2023-01-26T05:19:45;101691.25;;;-1.17;94.70
51617;BME280;37697;52.588;13.394;2023-01-26T05:24:48;101697.08;;;-1.18;94.48
51617;BME280;37697;52.588;13.394;2023-01-26T05:29:50;101694.69;;;-1.21;94.49
51617;BME280;37697;52.588;13.394;2023-01-26T05:34:53;101696.44;;;-1.22;94.55
51617;BME280;37697;52.588;13.394;2023-01-26T05:39:56;101697.09;;;-1.23;94.67
51617;BME280;37697;52.588;13.394;2023-01-26T05:44:59;101691.36;;;-1.20;94.80
51617;BME280;37697;52.588;13.394;2023-01-26T05:50:03;101694.55;;;-1.21;94.60
51617;BME280;37697;52.588;13.394;2023-01-26T05:55:07;101697.84;;;-1.20;94.65
51617;BME280;37697;52.588;13.394;2023-01-26T06:00:11;101695.94;;;-1.19;94.68
51617;BME280;37697;52.588;13.394;2023-01-26T06:05:14;101703.71;;;-1.21;94.41
51617;BME280;37697;52.588;13.394;2023-01-26T06:10:17;101704.88;;;-1.23;94.33
51617;BME280;37697;52.588;13.394;2023-01-26T06:15:20;101704.08;;;-1.22;94.42
51617;BME280;37697;52.588;13.394;2023-01-26T06:20:22;101709.33;;;-1.21;94.44
51617;BME280;37697;52.588;13.394;2023-01-26T06:25:25;101713.45;;;-1.19;94.38
51617;BME280;37697;52.588;13.394;2023-01-26T06:30:28;101711.14;;;-1.22;94.16
51617;BME280;37697;52.588;13.394;2023-01-26T06:35:32;101706.88;;;-1.20;94.27
51617;BME280;37697;52.588;13.394;2023-01-26T06:40:35;101704.03;;;-1.23;94.18
51617;BME280;37697;52.588;13.394;2023-01-26T06:45:38;101708.13;;;-1.30;94.29
51617;BME280;37697;52.588;13.394;2023-01-26T06:50:43;101709.81;;;-1.33;94.32
51617;BME280;37697;52.588;13.394;2023-01-26T06:55:45;101713.55;;;-1.35;94.41
51617;BME280;37697;52.588;13.394;2023-01-26T07:00:48;101714.60;;;-1.38;94.46
51617;BME280;37697;52.588;13.394;2023-01-26T07:05:51;101710.60;;;-1.39;94.61
51617;BME280;37697;52.588;13.394;2023-01-26T07:10:54;101707.02;;;-1.38;94.61
51617;BME280;37697;52.588;13.394;2023-01-26T07:16:05;101708.80;;;-1.35;94.77
51617;BME280;37697;52.588;13.394;2023-01-26T07:21:09;101708.64;;;-1.35;94.44
51617;BME280;37697;52.588;13.394;2023-01-26T07:26:13;101709.31;;;-1.40;94.30
51617;BME280;37697;52.588;13.394;2023-01-26T07:31:16;101717.78;;;-1.44;94.23
51617;BME280;37697;52.588;13.394;2023-01-26T07:36:18;101713.55;;;-1.48;94.20
51617;BME280;37697;52.588;13.394;2023-01-26T07:41:21;101716.92;;;-1.49;94.24
51617;BME280;37697;52.588;13.394;2023-01-26T07:46:24;101722.30;;;-1.54;93.99
51617;BME280;37697;52.588;13.394;2023-01-26T07:51:27;101716.73;;;-1.52;94.44
51617;BME280;37697;52.588;13.394;2023-01-26T07:56:29;101716.46;;;-1.48;94.63
51617;BME280;37697;52.588;13.394;2023-01-26T08:01:32;101722.84;;;-1.46;94.27
51617;BME280;37697;52.588;13.394;2023-01-26T08:06:35;101725.63;;;-1.51;94.11
51617;BME280;37697;52.588;13.394;2023-01-26T08:11:38;101727.77;;;-1.50;94.21
51617;BME280;37697;52.588;13.394;2023-01-26T08:16:40;101733.23;;;-1.45;94.32
51617;BME280;37697;52.588;13.394;2023-01-26T08:21:43;101728.52;;;-1.49;93.94
51617;BME280;37697;52.588;13.394;2023-01-26T08:26:46;101735.73;;;-1.52;93.70
51617;BME280;37697;52.588;13.394;2023-01-26T08:31:49;101739.77;;;-1.57;93.52
51617;BME280;37697;52.588;13.394;2023-01-26T08:36:52;101735.58;;;-1.56;93.65
51617;BME280;37697;52.588;13.394;2023-01-26T08:41:55;101729.86;;;-1.54;93.54
51617;BME280;37697;52.588;13.394;2023-01-26T08:46:57;101729.05;;;-1.52;93.54
51617;BME280;37697;52.588;13.394;2023-01-26T08:52:00;101726.09;;;-1.54;93.19
51617;BME280;37697;52.588;13.394;2023-01-26T08:57:03;101728.76;;;-1.58;93.26
51617;BME280;37697;52.588;13.394;2023-01-26T09:02:05;101731.95;;;-1.59;93.30
51617;BME280;37697;52.588;13.394;2023-01-26T09:07:08;101728.58;;;-1.61;93.32
51617;BME280;37697;52.588;13.394;2023-01-26T09:12:12;101740.36;;;-1.62;93.49
51617;BME280;37697;52.588;13.394;2023-01-26T09:17:15;101742.52;;;-1.58;93.63
51617;BME280;37697;52.588;13.394;2023-01-26T09:22:18;101744.63;;;-1.58;93.64
51617;BME280;37697;52.588;13.394;2023-01-26T09:27:20;101748.50;;;-1.58;93.52
51617;BME280;37697;52.588;13.394;2023-01-26T09:32:24;101750.59;;;-1.57;93.59
51617;BME280;37697;52.588;13.394;2023-01-26T09:37:27;101743.46;;;-1.59;93.43
51617;BME280;37697;52.588;13.394;2023-01-26T09:42:41;101739.66;;;-1.56;93.69
51617;BME280;37697;52.588;13.394;2023-01-26T09:48:02;101736.95;;;-1.56;93.63
51617;BME280;37697;52.588;13.394;2023-01-26T09:58:42;101744.20;;;-1.59;93.45
51617;BME280;37697;52.588;13.394;2023-01-26T10:03:53;101744.52;;;-1.58;93.76
51617;BME280;37697;52.588;13.394;2023-01-26T10:09:07;101740.28;;;-1.54;93.73
51617;BME280;37697;52.588;13.394;2023-01-26T10:19:48;101727.33;;;-1.54;93.67
51617;BME280;37697;52.588;13.394;2023-01-26T10:24:54;101721.50;;;-1.54;93.86
51617;BME280;37697;52.588;13.394;2023-01-26T10:29:58;101720.14;;;-1.60;93.59
51617;BME280;37697;52.588;13.394;2023-01-26T10:35:01;101710.52;;;-1.61;93.96
51617;BME280;37697;52.588;13.394;2023-01-26T10:40:06;101698.23;;;-1.58;93.98
51617;BME280;37697;52.588;13.394;2023-01-26T10:45:32;101684.89;;;-1.60;93.85
51617;BME280;37697;52.588;13.394;2023-01-26T10:50:35;101672.09;;;-1.62;93.72
51617;BME280;37697;52.588;13.394;2023-01-26T10:55:37;101661.77;;;-1.64;93.66
51617;BME280;37697;52.588;13.394;2023-01-26T11:00:40;101665.80;;;-1.60;93.92
51617;BME280;37697;52.588;13.394;2023-01-26T11:05:43;101666.96;;;-1.62;93.68
51617;BME280;37697;52.588;13.394;2023-01-26T11:10:52;101670.61;;;-1.56;94.01
51617;BME280;37697;52.588;13.394;2023-01-26T11:16:20;101668.27;;;-1.50;93.64
51617;BME280;37697;52.588;13.394;2023-01-26T11:21:28;101659.52;;;-1.48;93.61
51617;BME280;37697;52.588;13.394;2023-01-26T11:37:35;101654.46;;;-1.42;93.42
51617;BME280;37697;52.588;13.394;2023-01-26T11:54:22;101635.27;;;-1.29;92.97
51617;BME280;37697;52.588;13.394;2023-01-26T11:59:34;101622.86;;;-1.25;92.90
51617;BME280;37697;52.588;13.394;2023-01-26T12:04:42;101625.06;;;-1.19;92.78
51617;BME280;37697;52.588;13.394;2023-01-26T12:09:48;101616.09;;;-1.16;92.48
51617;BME280;37697;52.588;13.394;2023-01-26T12:20:20;101613.48;;;-1.10;92.46
51617;BME280;37697;52.588;13.394;2023-01-26T12:25:34;101603.44;;;-1.06;92.05
51617;BME280;37697;52.588;13.394;2023-01-26T12:30:56;101599.14;;;-1.12;91.79
51617;BME280;37697;52.588;13.394;2023-01-26T12:36:25;101591.31;;;-1.10;91.94
51617;BME280;37697;52.588;13.394;2023-01-26T12:42:26;101582.55;;;-1.12;91.75
51617;BME280;37697;52.588;13.394;2023-01-26T12:52:37;101566.52;;;-1.16;91.46
51617;BME280;37697;52.588;13.394;2023-01-26T12:57:48;101571.43;;;-1.15;91.68
51617;BME280;37697;52.588;13.394;2023-01-26T13:02:55;101575.84;;;-1.19;91.57
51617;BME280;37697;52.588;13.394;2023-01-26T13:13:52;101581.33;;;-1.26;91.42
51617;BME280;37697;52.588;13.394;2023-01-26T13:18:57;101589.20;;;-1.28;91.46
51617;BME280;37697;52.588;13.394;2023-01-26T13:24:00;101589.91;;;-1.26;91.62
51617;BME280;37697;52.588;13.394;2023-01-26T13:29:28;101593.00;;;-1.24;91.38
51617;BME280;37697;52.588;13.394;2023-01-26T13:34:38;101600.11;;;-1.22;91.53
51617;BME280;37697;52.588;13.394;2023-01-26T13:39:45;101599.95;;;-1.20;91.38
51617;BME280;37697;52.588;13.394;2023-01-26T13:45:00;101610.05;;;-1.21;91.29
51617;BME280;37697;52.588;13.394;2023-01-26T13:50:30;101607.03;;;-1.24;91.31
51617;BME280;37697;52.588;13.394;2023-01-26T13:55:33;101609.04;;;-1.26;91.33
51617;BME280;37697;52.588;13.394;2023-01-26T14:00:37;101609.44;;;-1.31;91.15
51617;BME280;37697;52.588;13.394;2023-01-26T14:05:40;101606.85;;;-1.32;91.25
51617;BME280;37697;52.588;13.394;2023-01-26T14:10:43;101606.98;;;-1.32;91.32
51617;BME280;37697;52.588;13.394;2023-01-26T14:15:54;101604.40;;;-1.35;91.49
51617;BME280;37697;52.588;13.394;2023-01-26T14:21:03;101608.73;;;-1.34;91.48
51617;BME280;37697;52.588;13.394;2023-01-26T14:26:23;101611.30;;;-1.32;91.56
51617;BME280;37697;52.588;13.394;2023-01-26T14:31:30;101609.77;;;-1.35;91.73
51617;BME280;37697;52.588;13.394;2023-01-26T14:36:34;101612.22;;;-1.33;91.92
51617;BME280;37697;52.588;13.394;2023-01-26T14:41:41;101613.71;;;-1.32;91.84
51617;BME280;37697;52.588;13.394;2023-01-26T14:47:08;101609.56;;;-1.34;91.73
51617;BME280;37697;52.588;13.394;2023-01-26T14:52:32;101613.73;;;-1.40;91.69
51617;BME280;37697;52.588;13.394;2023-01-26T14:57:36;101605.70;;;-1.41;91.80
51617;BME280;37697;52.588;13.394;2023-01-26T15:02:42;101605.36;;;-1.46;91.63
51617;BME280;37697;52.588;13.394;2023-01-26T15:07:54;101607.74;;;-1.51;91.85
51617;BME280;37697;52.588;13.394;2023-01-26T15:13:05;101605.16;;;-1.53;92.05
51617;BME280;37697;52.588;13.394;2023-01-26T15:23:29;101621.30;;;-1.52;92.11
51617;BME280;37697;52.588;13.394;2023-01-26T15:28:33;101624.11;;;-1.54;92.06
51617;BME280;37697;52.588;13.394;2023-01-26T15:33:40;101628.55;;;-1.56;92.08
51617;BME280;37697;52.588;13.394;2023-01-26T15:38:46;101628.47;;;-1.56;92.18
51617;BME280;37697;52.588;13.394;2023-01-26T15:43:49;101628.09;;;-1.56;92.14
51617;BME280;37697;52.588;13.394;2023-01-26T15:48:52;101630.41;;;-1.58;92.05
51617;BME280;37697;52.588;13.394;2023-01-26T15:53:54;101634.98;;;-1.60;92.06
51617;BME280;37697;52.588;13.394;2023-01-26T15:58:57;101633.98;;;-1.61;92.13
51617;BME280;37697;52.588;13.394;2023-01-26T16:04:00;101638.00;;;-1.61;92.18
51617;BME280;37697;52.588;13.394;2023-01-26T16:09:02;101640.05;;;-1.59;92.44
51617;BME280;37697;52.588;13.394;2023-01-26T16:14:05;101634.61;;;-1.58;92.32
51617;BME280;37697;52.588;13.394;2023-01-26T16:19:09;101630.87;;;-1.56;92.19
51617;BME280;37697;52.588;13.394;2023-01-26T16:24:12;101635.66;;;-1.56;92.02
51617;BME280;37697;52.588;13.394;2023-01-26T16:29:14;101635.66;;;-1.56;92.00
51617;BME280;37697;52.588;13.394;2023-01-26T16:34:17;101637.29;;;-1.56;91.87
51617;BME280;37697;52.588;13.394;2023-01-26T16:39:20;101634.26;;;-1.55;92.04
51617;BME280;37697;52.588;13.394;2023-01-26T16:44:22;101635.05;;;-1.55;91.95
51617;BME280;37697;52.588;13.394;2023-01-26T16:49:26;101633.82;;;-1.57;91.80
51617;BME280;37697;52.588;13.394;2023-01-26T16:54:30;101635.44;;;-1.60;91.86
51617;BME280;37697;52.588;13.394;2023-01-26T16:59:33;101633.97;;;-1.59;92.17
51617;BME280;37697;52.588;13.394;2023-01-26T17:04:35;101628.27;;;-1.56;92.18
51617;BME280;37697;52.588;13.394;2023-01-26T17:09:38;101628.12;;;-1.59;91.81
51617;BME280;37697;52.588;13.394;2023-01-26T17:14:41;101632.38;;;-1.61;91.69
51617;BME280;37697;52.588;13.394;2023-01-26T17:19:43;101621.95;;;-1.63;91.72
51617;BME280;37697;52.588;13.394;2023-01-26T17:24:46;101624.98;;;-1.65;91.62
51617;BME280;37697;52.588;13.394;2023-01-26T17:29:49;101623.44;;;-1.65;91.81
51617;BME280;37697;52.588;13.394;2023-01-26T17:34:53;101623.38;;;-1.68;91.65
51617;BME280;37697;52.588;13.394;2023-01-26T17:39:56;101620.14;;;-1.69;91.80
51617;BME280;37697;52.588;13.394;2023-01-26T17:44:59;101627.59;;;-1.66;92.11
51617;BME280;37697;52.588;13.394;2023-01-26T17:50:03;101637.95;;;-1.65;91.78
51617;BME280;37697;52.588;13.394;2023-01-26T17:55:06;101644.34;;;-1.65;91.91
51617;BME280;37697;52.588;13.394;2023-01-26T18:00:10;101650.60;;;-1.68;91.85
51617;BME280;37697;52.588;13.394;2023-01-26T18:05:13;101657.23;;;-1.70;91.81
51617;BME280;37697;52.588;13.394;2023-01-26T18:10:16;101658.20;;;-1.68;92.16
51617;BME280;37697;52.588;13.394;2023-01-26T18:15:19;101656.36;;;-1.65;92.40
51617;BME280;37697;52.588;13.394;2023-01-26T18:20:21;101651.96;;;-1.63;92.25
51617;BME280;37697;52.588;13.394;2023-01-26T18:25:24;101650.89;;;-1.61;92.48
51617;BME280;37697;52.588;13.394;2023-01-26T18:30:27;101654.34;;;-1.61;92.21
51617;BME280;37697;52.588;13.394;2023-01-26T18:35:30;101653.75;;;-1.60;92.46
51617;BME280;37697;52.588;13.394;2023-01-26T18:40:33;101656.13;;;-1.62;92.35
51617;BME280;37697;52.588;13.394;2023-01-26T18:45:39;101650.30;;;-1.63;92.58
51617;BME280;37697;52.588;13.394;2023-01-26T18:50:47;101653.95;;;-1.61;92.47
51617;BME280;37697;52.588;13.394;2023-01-26T18:55:50;101660.00;;;-1.60;92.70
51617;BME280;37697;52.588;13.394;2023-01-26T19:00:57;101663.16;;;-1.58;92.73
51617;BME280;37697;52.588;13.394;2023-01-26T19:06:00;101661.77;;;-1.56;92.86
51617;BME280;37697;52.588;13.394;2023-01-26T19:11:06;101661.89;;;-1.57;92.72
51617;BME280;37697;52.588;13.394;2023-01-26T19:16:10;101664.67;;;-1.56;92.84
51617;BME280;37697;52.588;13.394;2023-01-26T19:21:13;101672.90;;;-1.54;92.96
51617;BME280;37697;52.588;13.394;2023-01-26T19:26:18;101671.92;;;-1.50;93.10
51617;BME280;37697;52.588;13.394;2023-01-26T19:31:22;101671.27;;;-1.48;93.11
51617;BME280;37697;52.588;13.394;2023-01-26T19:36:27;101665.14;;;-1.47;93.15
51617;BME280;37697;52.588;13.394;2023-01-26T19:41:31;101664.10;;;-1.46;93.26
51617;BME280;37697;52.588;13.394;2023-01-26T19:46:34;101662.08;;;-1.44;93.45
51617;BME280;37697;52.588;13.394;2023-01-26T19:51:37;101662.09;;;-1.47;93.17
51617;BME280;37697;52.588;13.394;2023-01-26T19:56:39;101665.63;;;-1.48;93.36
51617;BME280;37697;52.588;13.394;2023-01-26T20:01:42;101665.23;;;-1.46;93.76
51617;BME280;37697;52.588;13.394;2023-01-26T20:06:47;101662.90;;;-1.43;93.87
51617;BME280;37697;52.588;13.394;2023-01-26T20:11:49;101665.61;;;-1.41;93.98
51617;BME280;37697;52.588;13.394;2023-01-26T20:16:52;101663.80;;;-1.38;94.06
51617;BME280;37697;52.588;13.394;2023-01-26T20:21:55;101661.98;;;-1.35;94.24
51617;BME280;37697;52.588;13.394;2023-01-26T20:26:58;101668.35;;;-1.33;94.18
51617;BME280;37697;52.588;13.394;2023-01-26T20:32:00;101669.73;;;-1.32;94.15
51617;BME280;37697;52.588;13.394;2023-01-26T20:37:03;101669.65;;;-1.31;94.02
51617;BME280;37697;52.588;13.394;2023-01-26T20:42:06;101676.76;;;-1.31;94.30
51617;BME280;37697;52.588;13.394;2023-01-26T20:47:09;101675.98;;;-1.30;94.44
51617;BME280;37697;52.588;13.394;2023-01-26T20:52:12;101676.64;;;-1.29;94.42
51617;BME280;37697;52.588;13.394;2023-01-26T20:57:15;101675.91;;;-1.27;94.43
51617;BME280;37697;52.588;13.394;2023-01-26T21:02:18;101673.63;;;-1.26;94.41
51617;BME280;37697;52.588;13.394;2023-01-26T21:07:20;101670.38;;;-1.25;94.49
51617;BME280;37697;52.588;13.394;2023-01-26T21:12:23;101673.37;;;-1.26;94.47
51617;BME280;37697;52.588;13.394;2023-01-26T21:17:26;101668.76;;;-1.25;94.61
51617;BME280;37697;52.588;13.394;2023-01-26T21:22:28;101671.77;;;-1.23;94.74
51617;BME280;37697;52.588;13.394;2023-01-26T21:27:31;101673.17;;;-1.22;94.81
51617;BME280;37697;52.588;13.394;2023-01-26T21:32:34;101672.15;;;-1.20;94.79
51617;BME280;37697;52.588;13.394;2023-01-26T21:37:36;101671.06;;;-1.20;94.81
51617;BME280;37697;52.588;13.394;2023-01-26T21:42:39;101669.11;;;-1.19;94.83
51617;BME280;37697;52.588;13.394;2023-01-26T21:47:42;101665.23;;;-1.19;94.84
51617;BME280;37697;52.588;13.394;2023-01-26T21:52:44;101663.34;;;-1.19;94.94
51617;BME280;37697;52.588;13.394;2023-01-26T21:57:59;101660.91;;;-1.21;94.89
51617;BME280;37697;52.588;13.394;2023-01-26T22:03:20;101669.85;;;-1.24;94.82
51617;BME280;37697;52.588;13.394;2023-01-26T22:08:23;101675.78;;;-1.26;94.99
51617;BME280;37697;52.588;13.394;2023-01-26T22:13:25;101681.40;;;-1.25;95.19
51617;BME280;37697;52.588;13.394;2023-01-26T22:18:28;101680.87;;;-1.25;95.26
51617;BME280;37697;52.588;13.394;2023-01-26T22:23:32;101683.02;;;-1.26;95.31
51617;BME280;37697;52.588;13.394;2023-01-26T22:28:35;101686.58;;;-1.29;95.40
51617;BME280;37697;52.588;13.394;2023-01-26T22:33:38;101682.42;;;-1.30;95.71
51617;BME280;37697;52.588;13.394;2023-01-26T22:38:41;101684.42;;;-1.27;95.85
51617;BME280;37697;52.588;13.394;2023-01-26T22:43:45;101679.94;;;-1.25;95.94
51617;BME280;37697;52.588;13.394;2023-01-26T22:48:50;101679.59;;;-1.22;96.05
51617;BME280;37697;52.588;13.394;2023-01-26T22:53:54;101676.60;;;-1.21;96.11
51617;BME280;37697;52.588;13.394;2023-01-26T22:58:58;101676.34;;;-1.21;95.93
51617;BME280;37697;52.588;13.394;2023-01-26T23:04:02;101672.69;;;-1.21;95.92
51617;BME280;37697;52.588;13.394;2023-01-26T23:09:05;101670.74;;;-1.17;96.16
51617;BME280;37697;52.588;13.394;2023-01-26T23:14:07;101664.02;;;-1.13;96.43
51617;BME280;37697;52.588;13.394;2023-01-26T23:19:10;101665.16;;;-1.11;96.27
51617;BME280;37697;52.588;13.394;2023-01-26T23:24:13;101666.27;;;-1.10;96.17
51617;BME280;37697;52.588;13.394;2023-01-26T23:29:15;101664.74;;;-1.07;96.24
51617;BME280;37697;52.588;13.394;2023-01-26T23:34:18;101670.04;;;-1.06;96.28
51617;BME280;37697;52.588;13.394;2023-01-26T23:39:21;101676.04;;;-1.03;96.28
51617;BME280;37697;52.588;13.394;2023-01-26T23:44:23;101674.73;;;-1.04;96.19
51617;BME280;37697;52.588;13.394;2023-01-26T23:49:26;101668.00;;;-1.04;96.38
51617;BME280;37697;52.588;13.394;2023-01-26T23:54:28;101664.60;;;-1.01;96.37
51617;BME280;37697;52.588;13.394;2023-01-26T23:59:31;101665.77;;;-1.00;96.53
